createdAt,value
2023-02-04T00:00:21.219Z,5.48
2023-02-04T00:03:44.063Z,5.38
2023-02-04T00:06:46.918Z,5.43
2023-02-04T00:09:50.120Z,5.32
2023-02-04T00:12:53.029Z,5.44
2023-02-04T00:15:55.931Z,5.42
2023-02-04T00:18:58.875Z,5.44
2023-02-04T00:22:03.925Z,5.49
2023-02-04T00:25:07.510Z,5.55
2023-02-04T00:28:10.411Z,5.54
2023-02-04T00:31:13.790Z,5.50
2023-02-04T00:34:18.323Z,5.38
2023-02-04T00:37:21.979Z,5.53
2023-02-04T00:40:25.076Z,5.61
2023-02-04T00:43:27.933Z,5.41
2023-02-04T00:46:30.906Z,5.44
2023-02-04T00:49:35.085Z,5.36
2023-02-04T00:52:37.982Z,5.37
2023-02-04T00:55:40.782Z,5.46
2023-02-04T00:58:43.766Z,5.45
2023-02-04T01:01:46.575Z,5.53
2023-02-04T01:04:50.528Z,5.46
2023-02-04T01:07:53.673Z,5.42
2023-02-04T01:10:56.541Z,5.54
2023-02-04T01:13:59.718Z,5.51
2023-02-04T01:17:02.544Z,5.48
2023-02-04T01:20:05.812Z,5.51
2023-02-04T01:23:09.222Z,5.49
2023-02-04T01:26:12.087Z,5.62
2023-02-04T01:29:15.161Z,5.60
2023-02-04T01:32:17.969Z,5.60
2023-02-04T01:35:21.301Z,5.58
2023-02-04T01:38:24.242Z,5.58
2023-02-04T01:41:28.348Z,5.64
2023-02-04T01:44:31.465Z,5.70
2023-02-04T01:47:35.537Z,5.74
2023-02-04T01:50:38.725Z,5.80
2023-02-04T01:53:42.758Z,5.89
2023-02-04T01:56:47.897Z,5.80
2023-02-04T01:59:54.683Z,5.87
2023-02-04T02:02:58.683Z,5.83
2023-02-04T02:06:01.731Z,5.79
2023-02-04T02:09:04.969Z,5.90
2023-02-04T02:12:07.942Z,5.93
2023-02-04T02:15:11.485Z,5.83
2023-02-04T02:18:14.685Z,5.79
2023-02-04T02:21:25.242Z,5.85
2023-02-04T02:24:30.517Z,5.83
2023-02-04T02:27:33.418Z,5.92
2023-02-04T02:30:36.895Z,5.79
2023-02-04T02:33:40.090Z,5.80
2023-02-04T02:36:43.363Z,5.79
2023-02-04T02:39:46.487Z,5.74
2023-02-04T02:42:53.292Z,5.94
2023-02-04T02:46:01.091Z,5.83
2023-02-04T02:49:04.020Z,5.74
2023-02-04T02:52:09.528Z,5.78
2023-02-04T02:55:18.559Z,5.74
2023-02-04T02:58:32.362Z,5.70
2023-02-04T03:01:35.761Z,5.67
2023-02-04T03:04:42.676Z,5.78
2023-02-04T03:07:45.681Z,5.81
2023-02-04T03:10:49.134Z,5.74
2023-02-04T03:13:53.107Z,5.74
2023-02-04T03:16:56.551Z,5.72
2023-02-04T03:19:59.503Z,5.73
2023-02-04T03:23:02.278Z,5.90
2023-02-04T03:26:05.873Z,5.81
2023-02-04T03:29:09.491Z,5.84
2023-02-04T03:32:12.778Z,5.90
2023-02-04T03:35:15.717Z,5.80
2023-02-04T03:38:20.038Z,5.83
2023-02-04T03:41:22.964Z,5.80
2023-02-04T03:44:28.663Z,5.83
2023-02-04T03:47:31.564Z,5.80
2023-02-04T03:50:35.278Z,5.80
2023-02-04T03:53:38.150Z,5.86
2023-02-04T03:56:41.443Z,5.83
2023-02-04T03:59:44.502Z,5.74
2023-02-04T04:02:47.371Z,5.72
2023-02-04T04:05:50.572Z,5.65
2023-02-04T04:08:53.081Z,5.66
2023-02-04T04:11:56.552Z,5.70
2023-02-04T04:14:59.166Z,5.67
2023-02-04T04:18:04.551Z,5.77
2023-02-04T04:21:07.081Z,5.64
2023-02-04T04:24:10.268Z,5.62
2023-02-04T04:27:12.828Z,5.63
2023-02-04T04:30:16.215Z,5.69
2023-02-04T04:33:18.759Z,5.72
2023-02-04T04:36:21.877Z,5.67
2023-02-04T04:39:25.646Z,5.74
2023-02-04T04:42:28.810Z,5.67
2023-02-04T04:45:31.391Z,5.64
2023-02-04T04:48:34.563Z,5.71
2023-02-04T04:51:37.194Z,5.79
2023-02-04T04:54:40.302Z,5.71
2023-02-04T04:57:42.910Z,5.70
2023-02-04T05:00:46.264Z,5.82
2023-02-04T05:03:49.166Z,5.85
2023-02-04T05:06:52.362Z,5.73
2023-02-04T05:09:54.906Z,5.68
2023-02-04T05:12:57.973Z,5.73
2023-02-04T05:16:00.593Z,5.69
2023-02-04T05:19:03.737Z,5.80
2023-02-04T05:22:06.297Z,5.86
2023-02-04T05:25:09.473Z,5.86
2023-02-04T05:28:12.183Z,5.85
2023-02-04T05:31:15.441Z,5.90
2023-02-04T05:34:18.046Z,5.87
2023-02-04T05:37:21.361Z,5.87
2023-02-04T05:40:23.970Z,5.83
2023-02-04T05:43:27.107Z,5.89
2023-02-04T05:46:29.773Z,5.86
2023-02-04T05:49:32.869Z,5.88
2023-02-04T05:52:35.454Z,5.87
2023-02-04T05:55:39.286Z,5.76
2023-02-04T05:58:41.880Z,5.69
2023-02-04T06:01:45.032Z,5.68
2023-02-04T06:04:48.227Z,5.63
2023-02-04T06:07:51.141Z,5.50
2023-02-04T06:10:53.938Z,5.53
2023-02-04T06:13:56.896Z,5.51
2023-02-04T06:16:59.959Z,5.56
2023-02-04T06:20:03.564Z,5.44
2023-02-04T06:23:06.338Z,5.39
2023-02-04T06:26:09.449Z,5.47
2023-02-04T06:29:12.307Z,5.44
2023-02-04T06:32:15.220Z,5.26
2023-02-04T06:35:18.437Z,5.23
2023-02-04T06:38:21.445Z,5.09
2023-02-04T06:41:24.481Z,5.19
2023-02-04T06:44:27.409Z,5.07
2023-02-04T06:47:30.611Z,4.98
2023-02-04T06:50:33.720Z,4.96
2023-02-04T06:53:36.695Z,5.06
2023-02-04T06:56:39.817Z,5.25
2023-02-04T06:59:43.759Z,5.17
2023-02-04T07:02:46.678Z,5.16
2023-02-04T07:05:51.543Z,5.24
2023-02-04T07:08:54.467Z,5.16
2023-02-04T07:11:57.326Z,5.16
2023-02-04T07:15:00.142Z,5.28
2023-02-04T07:18:02.973Z,5.24
2023-02-04T07:21:06.434Z,5.25
2023-02-04T07:24:09.310Z,5.18
2023-02-04T07:27:12.149Z,5.22
2023-02-04T07:30:15.201Z,5.20
2023-02-04T07:33:18.299Z,5.15
2023-02-04T07:36:21.335Z,5.08
2023-02-04T07:39:24.525Z,5.20
2023-02-04T07:42:28.109Z,5.14
2023-02-04T07:45:34.257Z,5.18
2023-02-04T07:48:37.227Z,5.35
2023-02-04T07:51:40.025Z,5.67
2023-02-04T07:54:42.991Z,5.90
2023-02-04T07:57:46.076Z,6.10
2023-02-04T08:00:49.440Z,6.43
2023-02-04T08:03:52.616Z,6.79
2023-02-04T08:06:55.629Z,7.68
2023-02-04T08:09:58.782Z,9.12
2023-02-04T08:13:01.373Z,10.43
2023-02-04T08:16:07.291Z,10.57
2023-02-04T08:19:09.818Z,10.80
2023-02-04T08:22:13.053Z,11.15
2023-02-04T08:25:16.061Z,11.26
2023-02-04T08:28:19.434Z,11.13
2023-02-04T08:31:22.099Z,11.33
2023-02-04T08:34:25.241Z,11.78
2023-02-04T08:37:27.752Z,11.58
2023-02-04T08:40:31.136Z,11.95
2023-02-04T08:43:33.707Z,12.08
2023-02-04T08:46:36.996Z,12.03
2023-02-04T08:49:39.604Z,11.62
2023-02-04T08:52:42.625Z,10.68
2023-02-04T08:55:45.248Z,9.61
2023-02-04T08:58:51.020Z,8.96
2023-02-04T09:01:56.472Z,9.38
2023-02-04T09:05:01.947Z,11.01
2023-02-04T09:08:04.790Z,12.99
2023-02-04T09:11:10.800Z,14.62
2023-02-04T09:14:18.018Z,16.67
2023-02-04T09:17:21.358Z,19.05
2023-02-04T09:20:24.177Z,19.61
2023-02-04T09:23:27.914Z,19.41
2023-02-04T09:26:31.928Z,20.01
2023-02-04T09:29:36.763Z,19.47
2023-02-04T09:32:46.953Z,19.91
2023-02-04T09:35:54.671Z,21.65
2023-02-04T09:38:59.474Z,23.30
2023-02-04T09:42:04.659Z,23.77
2023-02-04T09:45:16.811Z,23.00
2023-02-04T09:48:22.197Z,19.27
2023-02-04T09:51:31.425Z,16.39
2023-02-04T09:55:49.752Z,13.95
2023-02-04T09:59:06.807Z,12.51
2023-02-04T10:02:23.265Z,11.12
2023-02-04T10:05:33.756Z,10.40
2023-02-04T10:08:38.072Z,9.71
2023-02-04T10:11:44.863Z,9.08
2023-02-04T10:14:49.069Z,8.68
2023-02-04T10:18:03.507Z,8.06
2023-02-04T10:21:15.645Z,7.79
2023-02-04T10:24:27.201Z,7.46
2023-02-04T10:27:29.906Z,7.39
2023-02-04T10:30:43.892Z,7.18
2023-02-04T10:33:46.726Z,7.04
2023-02-04T10:36:49.924Z,7.02
2023-02-04T10:39:52.704Z,7.19
2023-02-04T10:42:55.852Z,7.32
2023-02-04T10:46:05.028Z,7.71
2023-02-04T10:49:20.818Z,8.06
2023-02-04T10:52:34.207Z,8.73
2023-02-04T10:55:37.566Z,9.92
2023-02-04T10:58:40.397Z,10.86
2023-02-04T11:01:43.623Z,11.61
2023-02-04T11:04:46.266Z,12.19
2023-02-04T11:07:50.495Z,12.66
2023-02-04T11:10:59.922Z,12.60
2023-02-04T11:14:04.321Z,12.58
2023-02-04T11:17:21.852Z,12.39
2023-02-04T11:20:31.322Z,11.72
2023-02-04T11:23:38.824Z,11.45
2023-02-04T11:26:52.677Z,11.08
2023-02-04T11:30:19.227Z,11.37
2023-02-04T11:33:24.982Z,11.83
2023-02-04T11:36:27.787Z,11.73
2023-02-04T11:39:36.179Z,11.72
2023-02-04T11:42:41.986Z,11.96
2023-02-04T11:45:46.464Z,12.31
2023-02-04T11:48:56.820Z,12.55
2023-02-04T11:52:08.915Z,12.71
2023-02-04T11:55:13.500Z,12.81
2023-02-04T11:58:19.344Z,12.85
2023-02-04T12:01:25.652Z,13.03
2023-02-04T12:04:29.030Z,13.00
2023-02-04T12:07:31.705Z,12.99
2023-02-04T12:10:35.336Z,12.87
2023-02-04T12:13:55.394Z,12.63
2023-02-04T12:16:58.584Z,12.59
2023-02-04T12:20:01.207Z,12.70
2023-02-04T12:23:05.265Z,12.69
2023-02-04T12:26:08.657Z,12.58
2023-02-04T12:29:12.160Z,12.54
2023-02-04T12:32:14.817Z,12.51
2023-02-04T12:35:18.722Z,12.52
2023-02-04T12:38:21.482Z,12.57
2023-02-04T12:41:25.524Z,12.77
2023-02-04T12:44:28.159Z,13.45
2023-02-04T12:47:31.357Z,14.47
2023-02-04T12:50:33.915Z,15.82
2023-02-04T12:53:36.912Z,17.50
2023-02-04T12:56:39.595Z,19.69
2023-02-04T12:59:42.884Z,21.40
2023-02-04T13:02:45.968Z,22.19
2023-02-04T13:05:49.316Z,22.72
2023-02-04T13:08:51.866Z,22.86
2023-02-04T13:11:55.022Z,23.11
2023-02-04T13:14:57.770Z,23.86
2023-02-04T13:18:01.517Z,23.96
2023-02-04T13:21:04.396Z,23.74
2023-02-04T13:24:08.208Z,23.38
2023-02-04T13:27:10.867Z,23.12
2023-02-04T13:30:15.970Z,23.36
2023-02-04T13:33:18.517Z,23.35
2023-02-04T13:36:21.689Z,22.69
2023-02-04T13:39:24.408Z,20.15
2023-02-04T13:42:28.716Z,17.66
2023-02-04T13:45:31.750Z,15.59
2023-02-04T13:48:36.603Z,14.11
2023-02-04T13:51:39.338Z,12.96
2023-02-04T13:54:42.472Z,12.15
2023-02-04T13:57:45.035Z,11.22
2023-02-04T14:00:48.029Z,10.46
2023-02-04T14:03:50.774Z,9.57
2023-02-04T14:06:55.093Z,8.87
2023-02-04T14:09:57.944Z,8.38
2023-02-04T14:13:00.834Z,8.06
2023-02-04T14:16:03.973Z,7.66
2023-02-04T14:19:07.527Z,7.30
2023-02-04T14:22:12.917Z,6.92
2023-02-04T14:25:15.966Z,6.60
2023-02-04T14:28:18.843Z,6.34
2023-02-04T14:31:22.105Z,6.18
2023-02-04T14:34:25.126Z,5.97
2023-02-04T14:37:28.618Z,5.65
2023-02-04T14:40:31.791Z,5.47
2023-02-04T14:43:37.271Z,5.46
2023-02-04T14:46:41.337Z,5.31
2023-02-04T14:49:44.225Z,5.29
2023-02-04T14:52:47.074Z,5.19
2023-02-04T14:55:49.943Z,5.13
2023-02-04T14:58:54.467Z,4.91
2023-02-04T15:01:57.536Z,4.75
2023-02-04T15:05:00.514Z,4.53
2023-02-04T15:08:03.559Z,4.43
2023-02-04T15:11:06.495Z,4.29
2023-02-04T15:14:09.479Z,4.25
2023-02-04T15:17:13.156Z,4.08
2023-02-04T15:20:17.468Z,3.97
2023-02-04T15:23:23.243Z,3.91
2023-02-04T15:26:26.193Z,3.96
2023-02-04T15:29:29.190Z,4.00
2023-02-04T15:32:32.278Z,3.90
2023-02-04T15:35:35.216Z,3.73
2023-02-04T15:38:38.163Z,3.66
2023-02-04T15:41:41.101Z,3.65
2023-02-04T15:44:43.998Z,3.61
2023-02-04T15:47:46.876Z,3.68
2023-02-04T15:50:50.510Z,3.62
2023-02-04T15:53:53.577Z,3.58
2023-02-04T15:56:56.425Z,3.56
2023-02-04T15:59:59.451Z,3.43
2023-02-04T16:03:02.428Z,3.41
2023-02-04T16:06:05.580Z,3.34
2023-02-04T16:09:08.484Z,3.34
2023-02-04T16:12:11.494Z,3.21
2023-02-04T16:15:15.494Z,3.26
2023-02-04T16:18:18.439Z,3.15
2023-02-04T16:21:23.312Z,3.24
2023-02-04T16:24:26.175Z,3.24
2023-02-04T16:27:29.209Z,3.12
2023-02-04T16:30:32.373Z,3.11
2023-02-04T16:33:36.141Z,3.16
2023-02-04T16:36:39.019Z,3.10
2023-02-04T16:39:44.738Z,3.04
2023-02-04T16:42:48.136Z,2.85
2023-02-04T16:45:52.354Z,2.74
2023-02-04T16:48:55.168Z,2.71
2023-02-04T16:52:01.461Z,2.74
2023-02-04T16:55:56.666Z,2.87
2023-02-04T17:00:00.213Z,2.77
2023-02-04T17:03:58.461Z,2.58
2023-02-04T17:07:07.573Z,2.55
2023-02-04T17:10:11.164Z,2.52
2023-02-04T17:13:18.264Z,2.56
2023-02-04T17:16:21.768Z,2.56
2023-02-04T17:23:13.929Z,2.48
2023-02-04T17:26:19.406Z,2.40
2023-02-04T17:29:49.208Z,2.31
2023-02-04T17:33:06.218Z,2.20
2023-02-04T17:36:13.762Z,2.14
2023-02-04T17:39:20.110Z,2.24
2023-02-04T17:42:23.124Z,2.17
2023-02-04T17:45:26.366Z,2.25
2023-02-04T17:48:29.454Z,2.19
2023-02-04T17:51:33.006Z,2.16
2023-02-04T17:54:36.428Z,2.09
2023-02-04T17:57:39.551Z,2.16
2023-02-04T18:00:45.271Z,2.14
2023-02-04T18:03:48.610Z,2.27
2023-02-04T18:06:52.851Z,2.30
2023-02-04T18:10:22.155Z,2.13
2023-02-04T18:13:36.906Z,2.29
2023-02-04T18:16:40.626Z,2.21
2023-02-04T18:19:45.150Z,2.20
2023-02-04T18:22:54.277Z,2.31
2023-02-04T18:26:13.274Z,2.20
2023-02-04T18:29:38.912Z,2.11
2023-02-04T18:32:42.246Z,2.13
2023-02-04T18:35:48.159Z,2.19
2023-02-04T18:38:51.164Z,2.22
2023-02-04T18:41:55.021Z,2.14
2023-02-04T18:45:26.513Z,2.18
2023-02-04T18:48:29.378Z,2.21
2023-02-04T18:51:35.382Z,2.16
2023-02-04T18:54:39.015Z,2.22
2023-02-04T18:57:41.947Z,2.12
2023-02-04T19:00:50.087Z,2.04
2023-02-04T19:03:59.512Z,2.01
2023-02-04T19:07:05.636Z,2.11
2023-02-04T19:10:28.754Z,2.09
2023-02-04T19:13:39.731Z,2.12
2023-02-04T19:16:44.564Z,2.11
2023-02-04T19:19:57.292Z,2.12
2023-02-04T19:23:00.382Z,2.17
2023-02-04T19:26:34.168Z,2.06
2023-02-04T19:29:41.501Z,2.06
2023-02-04T19:32:53.494Z,2.08
2023-02-04T19:35:58.592Z,2.10
2023-02-04T19:39:03.498Z,2.03
2023-02-04T19:42:28.841Z,1.97
2023-02-04T19:45:34.115Z,2.12
2023-02-04T19:48:38.894Z,2.02
2023-02-04T19:51:41.911Z,1.93
2023-02-04T19:54:45.296Z,2.01
2023-02-04T19:58:00.412Z,1.99
2023-02-04T20:01:06.334Z,2.03
2023-02-04T20:04:22.346Z,1.90
2023-02-04T20:07:29.726Z,1.82
2023-02-04T20:10:35.983Z,1.85
2023-02-04T20:13:38.901Z,1.89
2023-02-04T20:17:01.169Z,1.81
2023-02-04T20:20:28.608Z,1.87
2023-02-04T20:23:35.072Z,1.81
2023-02-04T20:26:37.910Z,1.87
2023-02-04T20:29:40.810Z,1.80
2023-02-04T20:32:46.075Z,1.84
2023-02-04T20:36:17.970Z,1.83
2023-02-04T20:39:39.912Z,1.97
2023-02-04T20:42:47.436Z,1.79
2023-02-04T20:46:00.957Z,1.77
2023-02-04T20:49:20.744Z,1.78
2023-02-04T20:52:46.046Z,1.69
2023-02-04T20:56:03.901Z,1.67
2023-02-04T20:59:12.946Z,1.69
2023-02-04T21:02:21.147Z,1.70
2023-02-04T21:05:36.569Z,1.62
2023-02-04T21:08:46.726Z,1.69
2023-02-04T21:11:50.443Z,1.63
2023-02-04T21:14:53.535Z,1.60
2023-02-04T21:17:56.361Z,1.55
2023-02-04T21:20:59.186Z,1.69
2023-02-04T21:24:02.526Z,1.68
2023-02-04T21:27:05.595Z,1.62
2023-02-04T21:30:09.517Z,1.55
2023-02-04T21:33:12.543Z,1.49
2023-02-04T21:36:16.138Z,1.52
2023-02-04T21:39:20.722Z,1.54
2023-02-04T21:42:23.844Z,1.42
2023-02-04T21:45:26.766Z,1.47
2023-02-04T21:48:29.628Z,1.40
2023-02-04T21:51:32.917Z,1.36
2023-02-04T21:54:35.893Z,1.43
2023-02-04T21:57:38.882Z,1.39
2023-02-04T22:00:42.696Z,1.43
2023-02-04T22:03:45.666Z,1.41
2023-02-04T22:06:48.594Z,1.31
2023-02-04T22:09:51.470Z,1.42
2023-02-04T22:12:54.355Z,1.40
2023-02-04T22:15:57.215Z,1.47
2023-02-04T22:19:00.185Z,1.44
2023-02-04T22:22:03.336Z,1.41
2023-02-04T22:25:06.632Z,1.33
2023-02-04T22:28:11.756Z,1.39
2023-02-04T22:31:14.898Z,1.47
2023-02-04T22:34:17.887Z,1.38
2023-02-04T22:37:20.878Z,1.47
2023-02-04T22:40:23.909Z,1.42
2023-02-04T22:43:27.375Z,1.43
2023-02-04T22:46:30.388Z,1.48
2023-02-04T22:49:33.687Z,1.46
2023-02-04T22:52:36.866Z,1.48
2023-02-04T22:55:39.629Z,1.49
2023-02-04T22:58:42.620Z,1.43
2023-02-04T23:01:45.707Z,1.43
2023-02-04T23:04:48.680Z,1.41
2023-02-04T23:07:51.616Z,1.39
2023-02-04T23:10:54.616Z,1.36
2023-02-04T23:13:57.520Z,1.34
2023-02-04T23:17:00.368Z,1.36
2023-02-04T23:20:05.505Z,1.33
2023-02-04T23:23:10.578Z,1.40
2023-02-04T23:26:14.478Z,1.27
2023-02-04T23:29:17.390Z,1.21
2023-02-04T23:32:20.368Z,1.37
2023-02-04T23:35:23.209Z,1.25
2023-02-04T23:38:26.191Z,1.29
2023-02-04T23:41:29.169Z,1.27
2023-02-04T23:44:31.975Z,1.23
2023-02-04T23:47:35.217Z,1.23
2023-02-04T23:50:38.090Z,1.15
2023-02-04T23:53:41.089Z,1.10
2023-02-04T23:56:44.008Z,1.09
2023-02-04T23:59:46.954Z,1.15
